Hauptseite
METAR-TAF:

METAR-TAF

Flughäfen :

Flughafen Angers Loire

Angers, Frankreich

Breite: 47-33-37N, Länge: 000-18-44W, Höhe: 59 m

Beobachtung

Neuester Wetterbericht von vor 36 Minuten, um 20:30 UTC
Wind 8 kt aus Süd
Temperatur 7°C
Luftfeuchtigkeit 93%
Luftdruck 1009 hPa
Sichtweite: 9000 m
Leichtregen

METAR: LFJR 162030Z AUTO 19008KT 9000 -RA OVC009/// ///TCU 07/06 Q1009

Zeit: 22:06 (21:06 UTC)

Prognose

Neuester Wetterbericht von vor 7 Stunden und 6 Minuten, um 14:00 UTC
Gültige Prognose vom 16 um 15 UTC bis 16 um 24 UTC
Wind 8 kt aus Süd/Südwest
Sichtweite 10 km oder mehr
Durchbrochene Bewölkung in der Höhe von 3000 ft

TAF: LFJR 161400Z 1615/1624 20008KT 9999 BKN030

Wetterbeobachtungen und Prognosen von mehr als 4000 Flughäfen (METAR und TAF Bericht).

Die verfügbaren Stationen werden durch gelbe und rote Markierungen auf der Karte dargestellt.

Führen Sie die Maus auf sie, um den Namen der Station zu sehen.

Darauf klicken, um die Beobachtung von Wetterbeobachtungen und Prognosen zu sehen.

Um die Karte zu ändern : klicken Sie auf den grünen Tasten mit einem schwarzen Kreuz Zum Vergrößern, auf den grünen Button mit einem Gedankenstrich zu verkleinern, oder auf die grünen Pfeile für benachbarte Karten.


METAR-TAF: